sensor_id;sensor_type;location;lat;lon;timestamp;temperature;humidity
16838;DHT22;19510;54.486;9.046;2023-06-26T00:00:08;22.70;99.90
16838;DHT22;19510;54.486;9.046;2023-06-26T00:02:34;22.70;99.90
16838;DHT22;19510;54.486;9.046;2023-06-26T00:04:59;22.60;99.90
16838;DHT22;19510;54.486;9.046;2023-06-26T00:07:29;22.60;99.90
16838;DHT22;19510;54.486;9.046;2023-06-26T00:09:55;22.60;99.90
16838;DHT22;19510;54.486;9.046;2023-06-26T00:12:21;22.50;99.90
16838;DHT22;19510;54.486;9.046;2023-06-26T00:14:47;22.50;99.90
16838;DHT22;19510;54.486;9.046;2023-06-26T00:17:12;22.40;99.90
16838;DHT22;19510;54.486;9.046;2023-06-26T00:19:43;22.40;99.90
16838;DHT22;19510;54.486;9.046;2023-06-26T00:22:08;22.40;99.90
16838;DHT22;19510;54.486;9.046;2023-06-26T00:24:34;22.40;99.90
16838;DHT22;19510;54.486;9.046;2023-06-26T00:27:02;22.40;99.90
16838;DHT22;19510;54.486;9.046;2023-06-26T00:29:28;22.40;99.90
16838;DHT22;19510;54.486;9.046;2023-06-26T00:31:54;22.40;99.90
16838;DHT22;19510;54.486;9.046;2023-06-26T00:34:22;22.30;99.90
16838;DHT22;19510;54.486;9.046;2023-06-26T00:36:48;22.30;99.90
16838;DHT22;19510;54.486;9.046;2023-06-26T00:39:13;22.30;99.90
16838;DHT22;19510;54.486;9.046;2023-06-26T00:41:39;22.30;99.90
16838;DHT22;19510;54.486;9.046;2023-06-26T00:44:05;22.20;99.90
16838;DHT22;19510;54.486;9.046;2023-06-26T00:46:32;22.20;99.90
16838;DHT22;19510;54.486;9.046;2023-06-26T00:49:04;22.20;99.90
16838;DHT22;19510;54.486;9.046;2023-06-26T00:51:30;22.20;99.90
16838;DHT22;19510;54.486;9.046;2023-06-26T00:53:57;22.10;99.90
16838;DHT22;19510;54.486;9.046;2023-06-26T00:56:23;22.10;99.90
16838;DHT22;19510;54.486;9.046;2023-06-26T00:58:52;22.10;99.90
16838;DHT22;19510;54.486;9.046;2023-06-26T01:01:17;22.10;99.90
16838;DHT22;19510;54.486;9.046;2023-06-26T01:03:48;22.00;99.90
16838;DHT22;19510;54.486;9.046;2023-06-26T01:06:19;22.00;99.90
16838;DHT22;19510;54.486;9.046;2023-06-26T01:08:46;22.00;99.90
16838;DHT22;19510;54.486;9.046;2023-06-26T01:11:13;21.90;99.90
16838;DHT22;19510;54.486;9.046;2023-06-26T01:13:41;21.90;99.90
16838;DHT22;19510;54.486;9.046;2023-06-26T01:16:08;21.90;99.90
16838;DHT22;19510;54.486;9.046;2023-06-26T01:18:35;21.90;99.90
16838;DHT22;19510;54.486;9.046;2023-06-26T01:21:03;21.90;99.90
16838;DHT22;19510;54.486;9.046;2023-06-26T01:24:05;21.90;99.90
16838;DHT22;19510;54.486;9.046;2023-06-26T01:26:35;21.90;99.90
16838;DHT22;19510;54.486;9.046;2023-06-26T01:29:04;21.90;99.90
16838;DHT22;19510;54.486;9.046;2023-06-26T01:31:31;21.80;99.90
16838;DHT22;19510;54.486;9.046;2023-06-26T01:33:59;21.80;99.90
16838;DHT22;19510;54.486;9.046;2023-06-26T01:36:26;21.80;99.90
16838;DHT22;19510;54.486;9.046;2023-06-26T01:38:52;21.80;99.90
16838;DHT22;19510;54.486;9.046;2023-06-26T01:41:19;21.70;99.90
16838;DHT22;19510;54.486;9.046;2023-06-26T01:46:39;21.60;99.90
16838;DHT22;19510;54.486;9.046;2023-06-26T01:49:22;21.60;99.90
16838;DHT22;19510;54.486;9.046;2023-06-26T01:52:32;21.60;99.90
16838;DHT22;19510;54.486;9.046;2023-06-26T01:57:30;21.50;99.90
16838;DHT22;19510;54.486;9.046;2023-06-26T01:59:56;21.50;99.90
16838;DHT22;19510;54.486;9.046;2023-06-26T02:02:24;21.50;99.90
16838;DHT22;19510;54.486;9.046;2023-06-26T02:04:50;21.50;99.90
16838;DHT22;19510;54.486;9.046;2023-06-26T02:07:16;21.50;99.90
16838;DHT22;19510;54.486;9.046;2023-06-26T02:09:42;21.60;99.90
16838;DHT22;19510;54.486;9.046;2023-06-26T02:12:10;21.60;99.90
16838;DHT22;19510;54.486;9.046;2023-06-26T02:14:36;21.50;99.90
16838;DHT22;19510;54.486;9.046;2023-06-26T02:17:03;21.50;99.90
16838;DHT22;19510;54.486;9.046;2023-06-26T02:19:28;21.50;99.90
16838;DHT22;19510;54.486;9.046;2023-06-26T02:21:54;21.50;99.90
16838;DHT22;19510;54.486;9.046;2023-06-26T02:24:20;21.50;99.90
16838;DHT22;19510;54.486;9.046;2023-06-26T02:26:48;21.50;99.90
16838;DHT22;19510;54.486;9.046;2023-06-26T02:29:15;21.50;99.90
16838;DHT22;19510;54.486;9.046;2023-06-26T02:31:40;21.40;99.90
16838;DHT22;19510;54.486;9.046;2023-06-26T02:34:06;21.40;99.90
16838;DHT22;19510;54.486;9.046;2023-06-26T02:36:32;21.30;99.90
16838;DHT22;19510;54.486;9.046;2023-06-26T02:38:57;21.30;99.90
16838;DHT22;19510;54.486;9.046;2023-06-26T02:41:25;21.30;99.90
16838;DHT22;19510;54.486;9.046;2023-06-26T02:43:51;21.30;99.90
16838;DHT22;19510;54.486;9.046;2023-06-26T02:46:17;21.30;99.90
16838;DHT22;19510;54.486;9.046;2023-06-26T02:48:42;21.20;99.90
16838;DHT22;19510;54.486;9.046;2023-06-26T02:51:08;21.20;99.90
16838;DHT22;19510;54.486;9.046;2023-06-26T02:53:34;21.20;99.90
16838;DHT22;19510;54.486;9.046;2023-06-26T02:56:03;21.20;99.90
16838;DHT22;19510;54.486;9.046;2023-06-26T02:58:31;21.20;99.90
16838;DHT22;19510;54.486;9.046;2023-06-26T03:00:56;21.20;99.90
16838;DHT22;19510;54.486;9.046;2023-06-26T03:03:22;21.20;99.90
16838;DHT22;19510;54.486;9.046;2023-06-26T03:05:48;21.10;99.90
16838;DHT22;19510;54.486;9.046;2023-06-26T03:08:14;21.10;99.90
16838;DHT22;19510;54.486;9.046;2023-06-26T03:10:39;21.10;99.90
16838;DHT22;19510;54.486;9.046;2023-06-26T03:13:05;21.10;99.90
16838;DHT22;19510;54.486;9.046;2023-06-26T03:15:31;21.20;99.90
16838;DHT22;19510;54.486;9.046;2023-06-26T03:17:57;21.20;99.90
16838;DHT22;19510;54.486;9.046;2023-06-26T03:20:23;21.20;99.90
16838;DHT22;19510;54.486;9.046;2023-06-26T03:22:48;21.20;99.90
16838;DHT22;19510;54.486;9.046;2023-06-26T03:25:18;21.20;99.90
16838;DHT22;19510;54.486;9.046;2023-06-26T03:27:44;21.20;99.90
16838;DHT22;19510;54.486;9.046;2023-06-26T03:30:11;21.10;99.90
16838;DHT22;19510;54.486;9.046;2023-06-26T03:32:37;21.20;99.90
16838;DHT22;19510;54.486;9.046;2023-06-26T03:35:03;21.20;99.90
16838;DHT22;19510;54.486;9.046;2023-06-26T03:37:31;21.20;99.90
16838;DHT22;19510;54.486;9.046;2023-06-26T03:39:57;21.20;99.90
16838;DHT22;19510;54.486;9.046;2023-06-26T03:42:22;21.20;99.90
16838;DHT22;19510;54.486;9.046;2023-06-26T03:44:48;21.20;99.90
16838;DHT22;19510;54.486;9.046;2023-06-26T03:47:14;21.20;99.90
16838;DHT22;19510;54.486;9.046;2023-06-26T03:49:42;21.20;99.90
16838;DHT22;19510;54.486;9.046;2023-06-26T03:52:07;21.20;99.90
16838;DHT22;19510;54.486;9.046;2023-06-26T03:54:33;21.30;99.90
16838;DHT22;19510;54.486;9.046;2023-06-26T03:56:59;21.30;99.90
16838;DHT22;19510;54.486;9.046;2023-06-26T03:59:25;21.30;99.90
16838;DHT22;19510;54.486;9.046;2023-06-26T04:01:53;21.30;99.90
16838;DHT22;19510;54.486;9.046;2023-06-26T04:04:21;21.30;99.90
16838;DHT22;19510;54.486;9.046;2023-06-26T04:06:47;21.40;99.90
16838;DHT22;19510;54.486;9.046;2023-06-26T04:09:13;21.50;99.90
16838;DHT22;19510;54.486;9.046;2023-06-26T04:11:39;21.50;99.90
16838;DHT22;19510;54.486;9.046;2023-06-26T04:14:04;21.60;99.90
16838;DHT22;19510;54.486;9.046;2023-06-26T04:16:30;21.60;99.90
16838;DHT22;19510;54.486;9.046;2023-06-26T04:18:56;21.60;99.90
16838;DHT22;19510;54.486;9.046;2023-06-26T04:21:23;21.70;99.90
16838;DHT22;19510;54.486;9.046;2023-06-26T04:23:51;21.70;99.90
16838;DHT22;19510;54.486;9.046;2023-06-26T04:26:17;21.70;99.90
16838;DHT22;19510;54.486;9.046;2023-06-26T04:28:43;21.70;99.90
16838;DHT22;19510;54.486;9.046;2023-06-26T04:31:09;21.80;99.90
16838;DHT22;19510;54.486;9.046;2023-06-26T04:33:37;21.80;99.90
16838;DHT22;19510;54.486;9.046;2023-06-26T04:36:04;21.80;99.90
16838;DHT22;19510;54.486;9.046;2023-06-26T04:38:31;21.80;99.90
16838;DHT22;19510;54.486;9.046;2023-06-26T04:40:57;21.90;99.90
16838;DHT22;19510;54.486;9.046;2023-06-26T04:43:23;22.00;99.90
16838;DHT22;19510;54.486;9.046;2023-06-26T04:45:49;22.00;99.90
16838;DHT22;19510;54.486;9.046;2023-06-26T04:48:14;22.00;99.90
16838;DHT22;19510;54.486;9.046;2023-06-26T04:50:40;22.10;99.90
16838;DHT22;19510;54.486;9.046;2023-06-26T04:53:06;22.00;99.90
16838;DHT22;19510;54.486;9.046;2023-06-26T04:55:32;22.10;99.90
16838;DHT22;19510;54.486;9.046;2023-06-26T04:57:57;22.20;99.90
16838;DHT22;19510;54.486;9.046;2023-06-26T05:00:23;22.20;99.90
16838;DHT22;19510;54.486;9.046;2023-06-26T05:02:51;22.20;99.90
16838;DHT22;19510;54.486;9.046;2023-06-26T05:05:26;22.20;99.90
16838;DHT22;19510;54.486;9.046;2023-06-26T05:07:54;22.30;99.90
16838;DHT22;19510;54.486;9.046;2023-06-26T05:10:20;22.30;99.90
16838;DHT22;19510;54.486;9.046;2023-06-26T05:12:46;22.30;99.90
16838;DHT22;19510;54.486;9.046;2023-06-26T05:15:11;22.30;99.90
16838;DHT22;19510;54.486;9.046;2023-06-26T05:17:37;22.40;99.90
16838;DHT22;19510;54.486;9.046;2023-06-26T05:20:03;22.40;99.90
16838;DHT22;19510;54.486;9.046;2023-06-26T05:22:34;22.40;99.90
16838;DHT22;19510;54.486;9.046;2023-06-26T05:25:04;22.40;99.90
16838;DHT22;19510;54.486;9.046;2023-06-26T05:27:31;22.50;99.90
16838;DHT22;19510;54.486;9.046;2023-06-26T05:29:57;22.50;99.90
16838;DHT22;19510;54.486;9.046;2023-06-26T05:32:23;22.60;99.90
16838;DHT22;19510;54.486;9.046;2023-06-26T05:34:49;22.60;99.90
16838;DHT22;19510;54.486;9.046;2023-06-26T05:37:22;22.60;99.90
16838;DHT22;19510;54.486;9.046;2023-06-26T05:39:48;22.70;99.90
16838;DHT22;19510;54.486;9.046;2023-06-26T05:42:14;22.70;99.90
16838;DHT22;19510;54.486;9.046;2023-06-26T05:44:40;22.70;99.90
16838;DHT22;19510;54.486;9.046;2023-06-26T05:47:06;22.80;99.90
16838;DHT22;19510;54.486;9.046;2023-06-26T05:49:34;22.80;99.90
16838;DHT22;19510;54.486;9.046;2023-06-26T05:52:00;22.90;99.90
16838;DHT22;19510;54.486;9.046;2023-06-26T05:54:26;22.90;99.90
16838;DHT22;19510;54.486;9.046;2023-06-26T05:56:57;23.00;99.90
16838;DHT22;19510;54.486;9.046;2023-06-26T05:59:25;23.10;99.90
16838;DHT22;19510;54.486;9.046;2023-06-26T06:01:52;23.10;99.90
16838;DHT22;19510;54.486;9.046;2023-06-26T06:04:19;23.20;99.90
16838;DHT22;19510;54.486;9.046;2023-06-26T06:06:45;23.20;99.90
16838;DHT22;19510;54.486;9.046;2023-06-26T06:09:10;23.30;99.90
16838;DHT22;19510;54.486;9.046;2023-06-26T06:11:36;23.30;99.90
16838;DHT22;19510;54.486;9.046;2023-06-26T06:14:02;23.40;99.90
16838;DHT22;19510;54.486;9.046;2023-06-26T06:16:28;23.50;99.90
16838;DHT22;19510;54.486;9.046;2023-06-26T06:18:55;23.50;99.90
16838;DHT22;19510;54.486;9.046;2023-06-26T06:21:21;23.60;99.90
16838;DHT22;19510;54.486;9.046;2023-06-26T06:23:46;23.70;99.90
16838;DHT22;19510;54.486;9.046;2023-06-26T06:26:12;23.80;99.90
16838;DHT22;19510;54.486;9.046;2023-06-26T06:28:41;23.80;99.90
16838;DHT22;19510;54.486;9.046;2023-06-26T06:31:07;23.90;99.90
16838;DHT22;19510;54.486;9.046;2023-06-26T06:33:33;24.00;99.90
16838;DHT22;19510;54.486;9.046;2023-06-26T06:36:09;24.20;99.90
16838;DHT22;19510;54.486;9.046;2023-06-26T06:38:47;24.20;99.90
16838;DHT22;19510;54.486;9.046;2023-06-26T06:41:19;24.30;99.90
16838;DHT22;19510;54.486;9.046;2023-06-26T06:43:45;24.30;99.90
16838;DHT22;19510;54.486;9.046;2023-06-26T06:46:11;24.30;99.90
16838;DHT22;19510;54.486;9.046;2023-06-26T06:48:37;24.50;99.90
16838;DHT22;19510;54.486;9.046;2023-06-26T06:51:03;24.50;99.90
16838;DHT22;19510;54.486;9.046;2023-06-26T06:53:30;24.50;99.90
16838;DHT22;19510;54.486;9.046;2023-06-26T06:55:56;24.60;99.90
16838;DHT22;19510;54.486;9.046;2023-06-26T06:58:22;24.60;99.90
16838;DHT22;19510;54.486;9.046;2023-06-26T07:00:50;24.70;99.90
16838;DHT22;19510;54.486;9.046;2023-06-26T07:03:17;24.80;99.90
16838;DHT22;19510;54.486;9.046;2023-06-26T07:05:43;25.00;99.90
16838;DHT22;19510;54.486;9.046;2023-06-26T07:08:09;25.10;99.90
16838;DHT22;19510;54.486;9.046;2023-06-26T07:10:35;25.30;99.90
16838;DHT22;19510;54.486;9.046;2023-06-26T07:13:01;25.50;99.90
16838;DHT22;19510;54.486;9.046;2023-06-26T07:15:27;25.50;99.90
16838;DHT22;19510;54.486;9.046;2023-06-26T07:17:53;25.50;99.90
16838;DHT22;19510;54.486;9.046;2023-06-26T07:20:19;25.50;99.90
16838;DHT22;19510;54.486;9.046;2023-06-26T07:22:44;25.40;99.90
16838;DHT22;19510;54.486;9.046;2023-06-26T07:25:11;25.40;99.90
16838;DHT22;19510;54.486;9.046;2023-06-26T07:27:38;25.50;99.90
16838;DHT22;19510;54.486;9.046;2023-06-26T07:30:04;25.60;99.90
16838;DHT22;19510;54.486;9.046;2023-06-26T07:32:30;25.70;99.90
16838;DHT22;19510;54.486;9.046;2023-06-26T07:34:55;25.90;99.90
16838;DHT22;19510;54.486;9.046;2023-06-26T07:37:21;26.00;99.90
16838;DHT22;19510;54.486;9.046;2023-06-26T07:39:48;26.10;99.90
16838;DHT22;19510;54.486;9.046;2023-06-26T07:42:14;26.00;99.90
16838;DHT22;19510;54.486;9.046;2023-06-26T07:44:43;26.00;99.90
16838;DHT22;19510;54.486;9.046;2023-06-26T07:47:09;26.00;99.90
16838;DHT22;19510;54.486;9.046;2023-06-26T07:49:35;26.00;99.90
16838;DHT22;19510;54.486;9.046;2023-06-26T07:52:04;26.00;99.90
16838;DHT22;19510;54.486;9.046;2023-06-26T07:54:30;26.00;99.90
16838;DHT22;19510;54.486;9.046;2023-06-26T07:57:01;26.10;99.90
16838;DHT22;19510;54.486;9.046;2023-06-26T07:59:29;26.20;99.90
16838;DHT22;19510;54.486;9.046;2023-06-26T08:01:56;26.20;99.90
16838;DHT22;19510;54.486;9.046;2023-06-26T08:04:27;26.00;99.90
16838;DHT22;19510;54.486;9.046;2023-06-26T08:06:55;25.60;99.90
16838;DHT22;19510;54.486;9.046;2023-06-26T08:09:25;25.50;99.90
16838;DHT22;19510;54.486;9.046;2023-06-26T08:11:51;25.50;99.90
16838;DHT22;19510;54.486;9.046;2023-06-26T08:14:17;25.40;99.90
16838;DHT22;19510;54.486;9.046;2023-06-26T08:16:44;25.40;99.90
16838;DHT22;19510;54.486;9.046;2023-06-26T08:19:14;25.10;99.90
16838;DHT22;19510;54.486;9.046;2023-06-26T08:21:41;25.10;99.90
16838;DHT22;19510;54.486;9.046;2023-06-26T08:24:07;25.00;99.90
16838;DHT22;19510;54.486;9.046;2023-06-26T08:26:33;24.70;99.90
16838;DHT22;19510;54.486;9.046;2023-06-26T08:28:59;24.70;99.90
16838;DHT22;19510;54.486;9.046;2023-06-26T08:31:25;24.40;99.90
16838;DHT22;19510;54.486;9.046;2023-06-26T08:33:53;24.30;99.90
16838;DHT22;19510;54.486;9.046;2023-06-26T08:36:18;24.20;99.90
16838;DHT22;19510;54.486;9.046;2023-06-26T08:38:44;24.20;99.90
16838;DHT22;19510;54.486;9.046;2023-06-26T08:41:10;24.30;99.90
16838;DHT22;19510;54.486;9.046;2023-06-26T08:43:36;24.20;99.90
16838;DHT22;19510;54.486;9.046;2023-06-26T08:46:04;24.30;99.90
16838;DHT22;19510;54.486;9.046;2023-06-26T08:48:32;24.20;99.90
16838;DHT22;19510;54.486;9.046;2023-06-26T08:51:08;24.00;99.90
16838;DHT22;19510;54.486;9.046;2023-06-26T08:53:39;23.80;99.90
16838;DHT22;19510;54.486;9.046;2023-06-26T08:56:07;23.70;99.90
16838;DHT22;19510;54.486;9.046;2023-06-26T08:58:33;23.30;99.90
16838;DHT22;19510;54.486;9.046;2023-06-26T09:01:01;23.20;99.90
16838;DHT22;19510;54.486;9.046;2023-06-26T09:03:27;23.10;99.90
16838;DHT22;19510;54.486;9.046;2023-06-26T09:05:53;23.00;99.90
16838;DHT22;19510;54.486;9.046;2023-06-26T09:08:19;22.50;99.90
16838;DHT22;19510;54.486;9.046;2023-06-26T09:10:45;22.30;99.90
16838;DHT22;19510;54.486;9.046;2023-06-26T09:13:10;22.10;99.90
16838;DHT22;19510;54.486;9.046;2023-06-26T09:15:42;21.90;99.90
16838;DHT22;19510;54.486;9.046;2023-06-26T09:18:08;21.70;99.90
16838;DHT22;19510;54.486;9.046;2023-06-26T09:20:34;21.60;99.90
16838;DHT22;19510;54.486;9.046;2023-06-26T09:23:00;21.50;99.90
16838;DHT22;19510;54.486;9.046;2023-06-26T09:25:30;21.40;99.90
16838;DHT22;19510;54.486;9.046;2023-06-26T09:27:56;21.30;99.90
16838;DHT22;19510;54.486;9.046;2023-06-26T09:30:22;21.20;99.90
16838;DHT22;19510;54.486;9.046;2023-06-26T09:32:48;21.20;99.90
16838;DHT22;19510;54.486;9.046;2023-06-26T09:35:16;21.20;99.90
16838;DHT22;19510;54.486;9.046;2023-06-26T09:37:42;21.30;99.90
16838;DHT22;19510;54.486;9.046;2023-06-26T09:40:08;21.30;99.90
16838;DHT22;19510;54.486;9.046;2023-06-26T09:42:37;21.30;99.90
16838;DHT22;19510;54.486;9.046;2023-06-26T09:45:05;21.30;99.90
16838;DHT22;19510;54.486;9.046;2023-06-26T09:47:32;21.30;99.90
16838;DHT22;19510;54.486;9.046;2023-06-26T09:49:59;21.30;99.90
16838;DHT22;19510;54.486;9.046;2023-06-26T09:52:26;21.30;99.90
16838;DHT22;19510;54.486;9.046;2023-06-26T09:55:14;21.20;99.90
16838;DHT22;19510;54.486;9.046;2023-06-26T09:57:40;21.10;99.90
16838;DHT22;19510;54.486;9.046;2023-06-26T10:00:06;21.10;99.90
16838;DHT22;19510;54.486;9.046;2023-06-26T10:02:34;20.90;99.90
16838;DHT22;19510;54.486;9.046;2023-06-26T10:05:00;20.80;99.90
16838;DHT22;19510;54.486;9.046;2023-06-26T10:07:26;20.70;99.90
16838;DHT22;19510;54.486;9.046;2023-06-26T10:09:54;20.60;99.90
16838;DHT22;19510;54.486;9.046;2023-06-26T10:12:28;20.60;99.90
16838;DHT22;19510;54.486;9.046;2023-06-26T10:14:56;20.70;99.90
16838;DHT22;19510;54.486;9.046;2023-06-26T10:17:25;20.90;99.90
16838;DHT22;19510;54.486;9.046;2023-06-26T10:19:53;21.00;99.90
16838;DHT22;19510;54.486;9.046;2023-06-26T10:22:20;21.20;99.90
16838;DHT22;19510;54.486;9.046;2023-06-26T10:24:50;21.20;99.90
16838;DHT22;19510;54.486;9.046;2023-06-26T10:27:21;21.20;99.90
16838;DHT22;19510;54.486;9.046;2023-06-26T10:30:00;21.30;99.90
16838;DHT22;19510;54.486;9.046;2023-06-26T10:32:28;21.40;99.90
16838;DHT22;19510;54.486;9.046;2023-06-26T10:34:55;21.50;99.90
16838;DHT22;19510;54.486;9.046;2023-06-26T10:37:49;21.40;99.90
16838;DHT22;19510;54.486;9.046;2023-06-26T10:40:25;21.50;99.90
16838;DHT22;19510;54.486;9.046;2023-06-26T10:42:51;21.50;99.90
16838;DHT22;19510;54.486;9.046;2023-06-26T10:45:19;21.70;99.90
16838;DHT22;19510;54.486;9.046;2023-06-26T10:47:47;21.70;99.90
16838;DHT22;19510;54.486;9.046;2023-06-26T10:50:29;21.60;99.90
16838;DHT22;19510;54.486;9.046;2023-06-26T10:55:58;21.50;99.90
16838;DHT22;19510;54.486;9.046;2023-06-26T11:03:39;21.80;99.90
16838;DHT22;19510;54.486;9.046;2023-06-26T11:06:09;21.70;99.90
16838;DHT22;19510;54.486;9.046;2023-06-26T11:08:48;21.80;99.90
16838;DHT22;19510;54.486;9.046;2023-06-26T11:11:14;21.90;99.90
16838;DHT22;19510;54.486;9.046;2023-06-26T11:13:44;22.00;99.90
16838;DHT22;19510;54.486;9.046;2023-06-26T11:16:11;22.00;99.90
16838;DHT22;19510;54.486;9.046;2023-06-26T11:18:38;22.00;99.90
16838;DHT22;19510;54.486;9.046;2023-06-26T11:21:11;22.00;99.90
16838;DHT22;19510;54.486;9.046;2023-06-26T11:23:39;22.10;99.90
16838;DHT22;19510;54.486;9.046;2023-06-26T11:26:18;22.30;99.90
16838;DHT22;19510;54.486;9.046;2023-06-26T11:29:02;22.30;99.90
16838;DHT22;19510;54.486;9.046;2023-06-26T11:31:32;22.20;99.90
16838;DHT22;19510;54.486;9.046;2023-06-26T11:33:59;22.20;99.90
16838;DHT22;19510;54.486;9.046;2023-06-26T11:36:26;22.10;99.90
16838;DHT22;19510;54.486;9.046;2023-06-26T11:38:56;22.10;99.90
16838;DHT22;19510;54.486;9.046;2023-06-26T11:41:23;22.10;99.90
16838;DHT22;19510;54.486;9.046;2023-06-26T11:43:52;22.20;99.90
16838;DHT22;19510;54.486;9.046;2023-06-26T11:46:20;22.20;99.90
16838;DHT22;19510;54.486;9.046;2023-06-26T11:48:46;22.40;99.90
16838;DHT22;19510;54.486;9.046;2023-06-26T11:51:13;22.20;99.90
16838;DHT22;19510;54.486;9.046;2023-06-26T11:53:46;22.20;99.90
16838;DHT22;19510;54.486;9.046;2023-06-26T11:56:16;22.20;99.90
16838;DHT22;19510;54.486;9.046;2023-06-26T12:01:36;22.50;99.90
16838;DHT22;19510;54.486;9.046;2023-06-26T12:04:07;22.40;99.90
16838;DHT22;19510;54.486;9.046;2023-06-26T12:06:38;22.20;99.90
16838;DHT22;19510;54.486;9.046;2023-06-26T12:09:08;22.40;99.90
16838;DHT22;19510;54.486;9.046;2023-06-26T12:11:35;22.50;99.90
16838;DHT22;19510;54.486;9.046;2023-06-26T12:14:02;22.60;99.90
16838;DHT22;19510;54.486;9.046;2023-06-26T12:16:31;22.70;99.90
16838;DHT22;19510;54.486;9.046;2023-06-26T12:19:02;22.70;99.90
16838;DHT22;19510;54.486;9.046;2023-06-26T12:24:00;22.90;99.90
16838;DHT22;19510;54.486;9.046;2023-06-26T12:26:28;23.10;99.90
16838;DHT22;19510;54.486;9.046;2023-06-26T12:29:08;23.10;99.90
16838;DHT22;19510;54.486;9.046;2023-06-26T12:31:34;23.20;99.90
16838;DHT22;19510;54.486;9.046;2023-06-26T12:34:02;23.00;99.90
16838;DHT22;19510;54.486;9.046;2023-06-26T12:36:27;23.00;99.90
16838;DHT22;19510;54.486;9.046;2023-06-26T12:38:56;23.20;99.90
16838;DHT22;19510;54.486;9.046;2023-06-26T12:41:24;23.70;99.90
16838;DHT22;19510;54.486;9.046;2023-06-26T12:43:55;23.90;99.90
16838;DHT22;19510;54.486;9.046;2023-06-26T12:46:36;23.50;99.90
16838;DHT22;19510;54.486;9.046;2023-06-26T12:49:05;23.50;99.90
16838;DHT22;19510;54.486;9.046;2023-06-26T12:51:30;23.40;99.90
16838;DHT22;19510;54.486;9.046;2023-06-26T12:53:56;23.50;99.90
16838;DHT22;19510;54.486;9.046;2023-06-26T12:56:23;23.30;99.90
16838;DHT22;19510;54.486;9.046;2023-06-26T12:58:48;23.10;99.90
16838;DHT22;19510;54.486;9.046;2023-06-26T13:01:17;23.10;99.90
16838;DHT22;19510;54.486;9.046;2023-06-26T13:03:50;23.10;99.90
16838;DHT22;19510;54.486;9.046;2023-06-26T13:06:21;22.90;99.90
16838;DHT22;19510;54.486;9.046;2023-06-26T13:08:49;22.70;99.90
16838;DHT22;19510;54.486;9.046;2023-06-26T13:11:15;22.70;99.90
16838;DHT22;19510;54.486;9.046;2023-06-26T13:13:42;22.70;99.90
16838;DHT22;19510;54.486;9.046;2023-06-26T13:16:10;22.90;99.90
16838;DHT22;19510;54.486;9.046;2023-06-26T13:18:39;23.00;99.90
16838;DHT22;19510;54.486;9.046;2023-06-26T13:21:04;23.30;99.90
16838;DHT22;19510;54.486;9.046;2023-06-26T13:23:32;23.70;99.90
16838;DHT22;19510;54.486;9.046;2023-06-26T13:25:58;24.00;99.90
16838;DHT22;19510;54.486;9.046;2023-06-26T13:28:24;24.00;99.90
16838;DHT22;19510;54.486;9.046;2023-06-26T13:30:49;24.10;99.90
16838;DHT22;19510;54.486;9.046;2023-06-26T13:33:15;24.40;99.90
16838;DHT22;19510;54.486;9.046;2023-06-26T13:35:41;24.50;99.90
16838;DHT22;19510;54.486;9.046;2023-06-26T13:38:07;24.30;99.90
16838;DHT22;19510;54.486;9.046;2023-06-26T13:40:32;24.00;99.90
16838;DHT22;19510;54.486;9.046;2023-06-26T13:42:58;23.90;99.90
16838;DHT22;19510;54.486;9.046;2023-06-26T13:45:25;23.90;99.90
16838;DHT22;19510;54.486;9.046;2023-06-26T13:47:51;24.00;99.90
16838;DHT22;19510;54.486;9.046;2023-06-26T13:50:19;24.00;99.90
16838;DHT22;19510;54.486;9.046;2023-06-26T13:52:44;24.10;99.90
16838;DHT22;19510;54.486;9.046;2023-06-26T13:55:10;23.90;99.90
16838;DHT22;19510;54.486;9.046;2023-06-26T13:57:36;23.80;99.90
16838;DHT22;19510;54.486;9.046;2023-06-26T14:00:09;23.90;99.90
16838;DHT22;19510;54.486;9.046;2023-06-26T14:02:37;24.00;99.90
16838;DHT22;19510;54.486;9.046;2023-06-26T14:05:03;23.90;99.90
16838;DHT22;19510;54.486;9.046;2023-06-26T14:07:29;24.10;99.90
16838;DHT22;19510;54.486;9.046;2023-06-26T14:09:57;24.00;99.90
16838;DHT22;19510;54.486;9.046;2023-06-26T14:12:23;23.70;99.90
16838;DHT22;19510;54.486;9.046;2023-06-26T14:14:50;23.50;99.90
16838;DHT22;19510;54.486;9.046;2023-06-26T14:17:18;23.50;99.90
16838;DHT22;19510;54.486;9.046;2023-06-26T14:19:44;23.40;99.90
16838;DHT22;19510;54.486;9.046;2023-06-26T14:22:11;23.30;99.90
16838;DHT22;19510;54.486;9.046;2023-06-26T14:24:37;23.20;99.90
16838;DHT22;19510;54.486;9.046;2023-06-26T14:27:03;23.10;99.90
16838;DHT22;19510;54.486;9.046;2023-06-26T14:29:29;23.00;99.90
16838;DHT22;19510;54.486;9.046;2023-06-26T14:31:57;23.00;99.90
16838;DHT22;19510;54.486;9.046;2023-06-26T14:34:23;22.80;99.90
16838;DHT22;19510;54.486;9.046;2023-06-26T14:36:49;22.70;99.90
16838;DHT22;19510;54.486;9.046;2023-06-26T14:39:14;22.60;99.90
16838;DHT22;19510;54.486;9.046;2023-06-26T14:41:42;22.50;99.90
16838;DHT22;19510;54.486;9.046;2023-06-26T14:44:08;22.50;99.90
16838;DHT22;19510;54.486;9.046;2023-06-26T14:46:36;22.50;99.90
16838;DHT22;19510;54.486;9.046;2023-06-26T14:49:05;22.40;99.90
16838;DHT22;19510;54.486;9.046;2023-06-26T14:51:31;22.60;99.90
16838;DHT22;19510;54.486;9.046;2023-06-26T14:53:59;22.60;99.90
16838;DHT22;19510;54.486;9.046;2023-06-26T14:56:25;22.70;99.90
16838;DHT22;19510;54.486;9.046;2023-06-26T14:58:51;22.40;99.90
16838;DHT22;19510;54.486;9.046;2023-06-26T15:01:20;22.40;99.90
16838;DHT22;19510;54.486;9.046;2023-06-26T15:03:49;22.50;99.90
16838;DHT22;19510;54.486;9.046;2023-06-26T15:06:15;22.30;99.90
16838;DHT22;19510;54.486;9.046;2023-06-26T15:08:40;22.30;99.90
16838;DHT22;19510;54.486;9.046;2023-06-26T15:11:06;22.20;99.90
16838;DHT22;19510;54.486;9.046;2023-06-26T15:13:32;22.10;99.90
16838;DHT22;19510;54.486;9.046;2023-06-26T15:15:58;22.00;99.90
16838;DHT22;19510;54.486;9.046;2023-06-26T15:18:23;21.90;99.90
16838;DHT22;19510;54.486;9.046;2023-06-26T15:20:52;21.80;99.90
16838;DHT22;19510;54.486;9.046;2023-06-26T15:23:20;21.80;99.90
16838;DHT22;19510;54.486;9.046;2023-06-26T15:25:46;21.90;99.90
16838;DHT22;19510;54.486;9.046;2023-06-26T15:28:11;21.80;99.90
16838;DHT22;19510;54.486;9.046;2023-06-26T15:30:37;21.80;99.90
16838;DHT22;19510;54.486;9.046;2023-06-26T15:33:03;21.70;99.90
16838;DHT22;19510;54.486;9.046;2023-06-26T15:35:31;21.60;99.90
16838;DHT22;19510;54.486;9.046;2023-06-26T15:37:57;21.60;99.90
16838;DHT22;19510;54.486;9.046;2023-06-26T15:40:23;21.50;99.90
16838;DHT22;19510;54.486;9.046;2023-06-26T15:42:50;21.40;99.90
16838;DHT22;19510;54.486;9.046;2023-06-26T15:45:17;21.40;99.90
16838;DHT22;19510;54.486;9.046;2023-06-26T15:47:51;21.40;99.90
16838;DHT22;19510;54.486;9.046;2023-06-26T15:50:17;21.40;99.90